Petersville, Texas
Current Conditions -  °F | °C
As of 2:51 PM on Thursday 18 Dec 2014 (Local Time) from KVCT Reporting Station
Haze Haze  
Wind Chill: 68°   Ceiling: 700
Heat Index: 68°   Visibility: 5mi
Dew Point: 64°   Wind: 9mph
Humidity: 87%   Direction: 20°NNE
Pressure: 30.01"   Gusts: NA
Location:  29.2421°N, 97.0692°W
Report Text: KVCT 182051Z 02008KT 5SM BR OVC007 20/18 A3001 RMK AO2 SLP160 T02000178 56026
Loading
Personal Weather Stations






























Interactive Weather Map New forecast layout! Learn more

10-Day Weather Forecast

Advertisements
Track Severe Weather on mobile